sensor_id;sensor_type;location;lat;lon;timestamp;temperature;humidity
490;DHT22;231;48.120;11.576;2023-12-20T05:11:12;7.10;49.90
490;DHT22;231;48.120;11.576;2023-12-20T05:13:47;7.00;53.60
490;DHT22;231;48.120;11.576;2023-12-20T05:17:01;6.80;59.10
490;DHT22;231;48.120;11.576;2023-12-20T07:21:45;5.10;99.90
490;DHT22;231;48.120;11.576;2023-12-20T07:24:11;5.10;99.90
490;DHT22;231;48.120;11.576;2023-12-20T07:26:38;5.10;99.90
490;DHT22;231;48.120;11.576;2023-12-20T07:29:05;5.10;99.90
490;DHT22;231;48.120;11.576;2023-12-20T07:31:32;5.10;99.90
490;DHT22;231;48.120;11.576;2023-12-20T07:34:00;5.10;99.90
490;DHT22;231;48.120;11.576;2023-12-20T07:36:27;5.10;99.90
490;DHT22;231;48.120;11.576;2023-12-20T07:38:55;5.10;99.90
490;DHT22;231;48.120;11.576;2023-12-20T07:41:22;5.10;99.90
490;DHT22;231;48.120;11.576;2023-12-20T07:43:49;5.10;99.90
490;DHT22;231;48.120;11.576;2023-12-20T07:46:21;5.10;99.90
490;DHT22;231;48.120;11.576;2023-12-20T07:48:50;5.10;99.90
490;DHT22;231;48.120;11.576;2023-12-20T07:51:20;5.10;99.90
490;DHT22;231;48.120;11.576;2023-12-20T07:53:49;5.10;99.90
490;DHT22;231;48.120;11.576;2023-12-20T08:00:07;5.10;99.90
490;DHT22;231;48.120;11.576;2023-12-20T08:28:37;5.20;99.90
490;DHT22;231;48.120;11.576;2023-12-20T08:35:12;5.20;99.90
490;DHT22;231;48.120;11.576;2023-12-20T08:38:02;5.20;99.90
490;DHT22;231;48.120;11.576;2023-12-20T08:40:54;5.20;99.90
490;DHT22;231;48.120;11.576;2023-12-20T08:43:41;5.20;99.90
490;DHT22;231;48.120;11.576;2023-12-20T08:56:32;5.40;99.90
490;DHT22;231;48.120;11.576;2023-12-20T08:59:09;5.40;99.90
490;DHT22;231;48.120;11.576;2023-12-20T09:01:48;5.50;99.90
490;DHT22;231;48.120;11.576;2023-12-20T09:04:46;5.60;99.90
490;DHT22;231;48.120;11.576;2023-12-20T09:08:01;5.60;99.90
490;DHT22;231;48.120;11.576;2023-12-20T09:11:14;5.60;99.90
490;DHT22;231;48.120;11.576;2023-12-20T09:30:08;6.30;99.90
490;DHT22;231;48.120;11.576;2023-12-20T09:32:35;6.50;99.90
490;DHT22;231;48.120;11.576;2023-12-20T09:35:02;6.40;99.90
490;DHT22;231;48.120;11.576;2023-12-20T09:37:30;6.40;99.90
490;DHT22;231;48.120;11.576;2023-12-20T09:39:57;6.40;99.90
490;DHT22;231;48.120;11.576;2023-12-20T09:42:32;6.40;99.90
490;DHT22;231;48.120;11.576;2023-12-20T09:45:05;6.30;99.90
490;DHT22;231;48.120;11.576;2023-12-20T09:47:35;6.30;99.90
490;DHT22;231;48.120;11.576;2023-12-20T09:50:02;6.30;99.90
490;DHT22;231;48.120;11.576;2023-12-20T09:52:29;6.20;99.90
490;DHT22;231;48.120;11.576;2023-12-20T09:55:01;6.20;99.90
490;DHT22;231;48.120;11.576;2023-12-20T09:57:33;6.10;99.90
490;DHT22;231;48.120;11.576;2023-12-20T10:00:00;6.10;99.90
490;DHT22;231;48.120;11.576;2023-12-20T10:02:27;6.10;99.90
490;DHT22;231;48.120;11.576;2023-12-20T10:04:55;6.10;99.90
490;DHT22;231;48.120;11.576;2023-12-20T10:07:22;6.10;99.90
490;DHT22;231;48.120;11.576;2023-12-20T10:09:49;6.30;99.90
490;DHT22;231;48.120;11.576;2023-12-20T10:12:17;6.30;99.90
490;DHT22;231;48.120;11.576;2023-12-20T10:14:45;6.40;99.90
490;DHT22;231;48.120;11.576;2023-12-20T10:17:12;6.50;99.90
490;DHT22;231;48.120;11.576;2023-12-20T10:19:39;6.60;99.90
490;DHT22;231;48.120;11.576;2023-12-20T10:22:06;6.70;99.90
490;DHT22;231;48.120;11.576;2023-12-20T10:24:33;6.80;99.90
490;DHT22;231;48.120;11.576;2023-12-20T10:27:03;6.90;99.90
490;DHT22;231;48.120;11.576;2023-12-20T10:29:32;7.10;99.90
490;DHT22;231;48.120;11.576;2023-12-20T10:32:21;7.10;99.90
490;DHT22;231;48.120;11.576;2023-12-20T10:34:48;7.10;99.90
490;DHT22;231;48.120;11.576;2023-12-20T10:37:15;7.00;99.90
490;DHT22;231;48.120;11.576;2023-12-20T10:39:42;7.00;99.90
490;DHT22;231;48.120;11.576;2023-12-20T10:42:10;7.00;99.90
490;DHT22;231;48.120;11.576;2023-12-20T10:44:37;7.00;99.90
490;DHT22;231;48.120;11.576;2023-12-20T10:47:06;7.00;99.90
490;DHT22;231;48.120;11.576;2023-12-20T10:49:36;6.90;99.90
490;DHT22;231;48.120;11.576;2023-12-20T10:52:05;7.00;99.90
490;DHT22;231;48.120;11.576;2023-12-20T10:54:33;7.00;99.90
490;DHT22;231;48.120;11.576;2023-12-20T10:57:00;7.00;99.90
490;DHT22;231;48.120;11.576;2023-12-20T10:59:28;6.90;99.90
490;DHT22;231;48.120;11.576;2023-12-20T11:01:56;6.90;99.90
490;DHT22;231;48.120;11.576;2023-12-20T11:04:34;6.90;99.90
490;DHT22;231;48.120;11.576;2023-12-20T11:07:08;7.00;99.90
490;DHT22;231;48.120;11.576;2023-12-20T11:09:41;6.90;99.90
490;DHT22;231;48.120;11.576;2023-12-20T11:12:13;6.70;99.90
490;DHT22;231;48.120;11.576;2023-12-20T11:14:45;6.60;99.90
490;DHT22;231;48.120;11.576;2023-12-20T11:17:12;6.50;99.90
490;DHT22;231;48.120;11.576;2023-12-20T11:20:04;6.40;99.90
490;DHT22;231;48.120;11.576;2023-12-20T11:22:31;6.30;99.90
490;DHT22;231;48.120;11.576;2023-12-20T11:25:03;6.30;99.90
490;DHT22;231;48.120;11.576;2023-12-20T11:27:30;6.20;99.90
490;DHT22;231;48.120;11.576;2023-12-20T11:29:58;6.20;99.90
490;DHT22;231;48.120;11.576;2023-12-20T11:32:29;6.30;99.90
490;DHT22;231;48.120;11.576;2023-12-20T11:34:58;6.40;99.90
490;DHT22;231;48.120;11.576;2023-12-20T11:37:29;6.40;99.90
490;DHT22;231;48.120;11.576;2023-12-20T11:40:00;6.50;99.90
490;DHT22;231;48.120;11.576;2023-12-20T11:42:28;6.70;99.90
490;DHT22;231;48.120;11.576;2023-12-20T11:45:01;6.70;99.90
490;DHT22;231;48.120;11.576;2023-12-20T11:47:29;6.80;99.90
490;DHT22;231;48.120;11.576;2023-12-20T11:49:58;6.80;99.90
490;DHT22;231;48.120;11.576;2023-12-20T11:52:26;6.80;99.90
490;DHT22;231;48.120;11.576;2023-12-20T11:54:52;6.90;99.90
490;DHT22;231;48.120;11.576;2023-12-20T11:57:19;7.00;99.90
490;DHT22;231;48.120;11.576;2023-12-20T11:59:46;7.10;99.90
490;DHT22;231;48.120;11.576;2023-12-20T12:02:13;7.10;99.90
490;DHT22;231;48.120;11.576;2023-12-20T12:04:41;7.20;99.90
490;DHT22;231;48.120;11.576;2023-12-20T12:07:09;7.30;99.90
490;DHT22;231;48.120;11.576;2023-12-20T12:09:38;7.30;99.90
490;DHT22;231;48.120;11.576;2023-12-20T12:12:06;7.30;99.90
490;DHT22;231;48.120;11.576;2023-12-20T12:14:50;7.30;99.90
490;DHT22;231;48.120;11.576;2023-12-20T12:17:29;7.30;99.90
490;DHT22;231;48.120;11.576;2023-12-20T12:20:07;7.30;99.90
490;DHT22;231;48.120;11.576;2023-12-20T12:22:36;7.20;99.90
490;DHT22;231;48.120;11.576;2023-12-20T12:25:10;7.20;99.90
490;DHT22;231;48.120;11.576;2023-12-20T12:27:40;7.20;99.90
490;DHT22;231;48.120;11.576;2023-12-20T12:30:08;7.20;99.90
490;DHT22;231;48.120;11.576;2023-12-20T12:32:35;7.10;99.90
490;DHT22;231;48.120;11.576;2023-12-20T12:35:03;7.00;99.90
490;DHT22;231;48.120;11.576;2023-12-20T12:37:33;7.00;99.90
490;DHT22;231;48.120;11.576;2023-12-20T12:40:04;7.00;99.90
490;DHT22;231;48.120;11.576;2023-12-20T12:42:30;6.90;99.90
490;DHT22;231;48.120;11.576;2023-12-20T12:44:57;6.90;99.90
490;DHT22;231;48.120;11.576;2023-12-20T12:47:24;6.90;99.90
490;DHT22;231;48.120;11.576;2023-12-20T12:49:51;6.80;99.90
490;DHT22;231;48.120;11.576;2023-12-20T12:52:19;6.80;99.90
490;DHT22;231;48.120;11.576;2023-12-20T12:54:45;6.80;99.90
490;DHT22;231;48.120;11.576;2023-12-20T12:57:14;6.80;99.90
490;DHT22;231;48.120;11.576;2023-12-20T12:59:41;6.70;99.90
490;DHT22;231;48.120;11.576;2023-12-20T13:02:09;6.60;99.90
490;DHT22;231;48.120;11.576;2023-12-20T13:04:36;6.60;99.90
490;DHT22;231;48.120;11.576;2023-12-20T13:07:03;6.60;99.90
490;DHT22;231;48.120;11.576;2023-12-20T13:09:30;6.60;99.90
490;DHT22;231;48.120;11.576;2023-12-20T13:11:57;6.50;99.90
490;DHT22;231;48.120;11.576;2023-12-20T13:14:26;6.50;99.90
490;DHT22;231;48.120;11.576;2023-12-20T13:16:53;6.50;99.90
490;DHT22;231;48.120;11.576;2023-12-20T13:19:21;6.40;99.90
490;DHT22;231;48.120;11.576;2023-12-20T13:21:48;6.30;99.90
490;DHT22;231;48.120;11.576;2023-12-20T13:24:15;6.10;99.90
490;DHT22;231;48.120;11.576;2023-12-20T13:26:41;6.00;99.90
490;DHT22;231;48.120;11.576;2023-12-20T13:29:08;6.00;99.90
490;DHT22;231;48.120;11.576;2023-12-20T13:31:36;5.90;99.90
490;DHT22;231;48.120;11.576;2023-12-20T13:34:04;5.90;99.90
490;DHT22;231;48.120;11.576;2023-12-20T13:36:30;5.90;99.90
490;DHT22;231;48.120;11.576;2023-12-20T13:38:57;5.70;99.90
490;DHT22;231;48.120;11.576;2023-12-20T13:41:24;5.70;99.90
490;DHT22;231;48.120;11.576;2023-12-20T13:43:51;5.60;99.90
490;DHT22;231;48.120;11.576;2023-12-20T13:46:18;5.60;99.90
490;DHT22;231;48.120;11.576;2023-12-20T13:48:46;5.50;99.90
490;DHT22;231;48.120;11.576;2023-12-20T13:51:13;5.40;99.90
490;DHT22;231;48.120;11.576;2023-12-20T13:53:40;5.50;99.90
490;DHT22;231;48.120;11.576;2023-12-20T13:56:07;5.50;99.90
490;DHT22;231;48.120;11.576;2023-12-20T13:58:34;5.50;99.90
490;DHT22;231;48.120;11.576;2023-12-20T14:01:01;5.50;99.90
490;DHT22;231;48.120;11.576;2023-12-20T14:03:28;5.60;99.90
490;DHT22;231;48.120;11.576;2023-12-20T14:05:58;5.50;99.90
490;DHT22;231;48.120;11.576;2023-12-20T14:08:25;5.50;99.90
490;DHT22;231;48.120;11.576;2023-12-20T14:10:52;5.40;99.90
490;DHT22;231;48.120;11.576;2023-12-20T14:13:19;5.30;99.90
490;DHT22;231;48.120;11.576;2023-12-20T14:15:46;5.20;99.90
490;DHT22;231;48.120;11.576;2023-12-20T14:18:15;5.20;99.90
490;DHT22;231;48.120;11.576;2023-12-20T14:20:42;5.20;99.90
490;DHT22;231;48.120;11.576;2023-12-20T14:23:11;5.10;99.90
490;DHT22;231;48.120;11.576;2023-12-20T14:25:40;5.10;99.90
490;DHT22;231;48.120;11.576;2023-12-20T14:28:07;5.10;99.90
490;DHT22;231;48.120;11.576;2023-12-20T14:30:35;5.10;99.90
490;DHT22;231;48.120;11.576;2023-12-20T14:33:04;5.10;99.90
490;DHT22;231;48.120;11.576;2023-12-20T14:35:31;5.10;99.90
490;DHT22;231;48.120;11.576;2023-12-20T14:37:58;5.10;99.90
490;DHT22;231;48.120;11.576;2023-12-20T14:40:27;5.10;99.90
490;DHT22;231;48.120;11.576;2023-12-20T14:42:54;5.00;99.90
490;DHT22;231;48.120;11.576;2023-12-20T14:45:22;5.00;99.90
490;DHT22;231;48.120;11.576;2023-12-20T14:47:49;4.90;99.90
490;DHT22;231;48.120;11.576;2023-12-20T14:50:16;4.90;99.90
490;DHT22;231;48.120;11.576;2023-12-20T14:52:44;4.90;99.90
490;DHT22;231;48.120;11.576;2023-12-20T14:55:11;4.80;99.90
490;DHT22;231;48.120;11.576;2023-12-20T14:57:40;4.70;99.90
490;DHT22;231;48.120;11.576;2023-12-20T15:00:07;4.60;99.90
490;DHT22;231;48.120;11.576;2023-12-20T15:02:34;4.50;99.90
490;DHT22;231;48.120;11.576;2023-12-20T15:05:01;4.50;99.90
490;DHT22;231;48.120;11.576;2023-12-20T15:07:28;4.50;99.90
490;DHT22;231;48.120;11.576;2023-12-20T15:09:55;4.50;99.90
490;DHT22;231;48.120;11.576;2023-12-20T15:12:22;4.50;99.90
490;DHT22;231;48.120;11.576;2023-12-20T15:14:51;4.50;99.90
490;DHT22;231;48.120;11.576;2023-12-20T15:17:18;4.40;99.90
490;DHT22;231;48.120;11.576;2023-12-20T15:19:44;4.20;99.90
490;DHT22;231;48.120;11.576;2023-12-20T15:22:12;4.20;99.90
490;DHT22;231;48.120;11.576;2023-12-20T15:24:39;4.30;99.90
490;DHT22;231;48.120;11.576;2023-12-20T15:27:07;4.30;99.90
490;DHT22;231;48.120;11.576;2023-12-20T15:29:35;4.30;99.90
490;DHT22;231;48.120;11.576;2023-12-20T16:36:57;3.20;99.90
490;DHT22;231;48.120;11.576;2023-12-20T16:39:32;3.20;99.90
490;DHT22;231;48.120;11.576;2023-12-20T16:42:00;3.30;99.90
490;DHT22;231;48.120;11.576;2023-12-20T16:44:30;3.30;99.90
490;DHT22;231;48.120;11.576;2023-12-20T16:46:57;3.30;99.90
490;DHT22;231;48.120;11.576;2023-12-20T16:49:28;3.30;99.90
490;DHT22;231;48.120;11.576;2023-12-20T16:51:56;3.30;99.90
490;DHT22;231;48.120;11.576;2023-12-20T16:54:23;3.40;99.90
490;DHT22;231;48.120;11.576;2023-12-20T16:56:50;3.50;99.90
490;DHT22;231;48.120;11.576;2023-12-20T16:59:17;3.50;99.90
490;DHT22;231;48.120;11.576;2023-12-20T17:01:44;3.60;99.90
490;DHT22;231;48.120;11.576;2023-12-20T17:04:12;3.60;99.90
490;DHT22;231;48.120;11.576;2023-12-20T17:06:39;3.70;99.90
490;DHT22;231;48.120;11.576;2023-12-20T17:09:07;3.70;99.90
490;DHT22;231;48.120;11.576;2023-12-20T17:11:34;3.80;99.90
490;DHT22;231;48.120;11.576;2023-12-20T17:14:00;3.80;99.90
490;DHT22;231;48.120;11.576;2023-12-20T17:16:28;3.80;99.90
490;DHT22;231;48.120;11.576;2023-12-20T17:18:54;3.70;99.90
490;DHT22;231;48.120;11.576;2023-12-20T17:21:21;3.60;99.90
490;DHT22;231;48.120;11.576;2023-12-20T17:23:48;3.60;99.90
490;DHT22;231;48.120;11.576;2023-12-20T17:26:17;3.40;99.90
490;DHT22;231;48.120;11.576;2023-12-20T17:28:44;3.40;99.90
490;DHT22;231;48.120;11.576;2023-12-20T17:31:11;3.30;99.90
490;DHT22;231;48.120;11.576;2023-12-20T17:33:38;3.30;99.90
490;DHT22;231;48.120;11.576;2023-12-20T17:36:05;3.40;99.90
490;DHT22;231;48.120;11.576;2023-12-20T17:38:32;3.40;99.90
490;DHT22;231;48.120;11.576;2023-12-20T17:41:02;3.60;99.90
490;DHT22;231;48.120;11.576;2023-12-20T17:43:30;3.60;99.90
490;DHT22;231;48.120;11.576;2023-12-20T17:45:57;3.60;99.90
490;DHT22;231;48.120;11.576;2023-12-20T17:48:23;3.70;99.90
490;DHT22;231;48.120;11.576;2023-12-20T17:50:50;3.70;99.90
490;DHT22;231;48.120;11.576;2023-12-20T17:53:17;3.70;99.90
490;DHT22;231;48.120;11.576;2023-12-20T17:55:44;3.80;99.90
490;DHT22;231;48.120;11.576;2023-12-20T17:58:11;3.80;99.90
490;DHT22;231;48.120;11.576;2023-12-20T18:00:39;3.80;99.90
490;DHT22;231;48.120;11.576;2023-12-20T18:03:06;3.70;99.90
490;DHT22;231;48.120;11.576;2023-12-20T18:05:33;3.80;99.90
490;DHT22;231;48.120;11.576;2023-12-20T18:08:00;3.80;99.90
490;DHT22;231;48.120;11.576;2023-12-20T18:10:26;3.70;99.90
490;DHT22;231;48.120;11.576;2023-12-20T18:12:53;3.70;99.90
490;DHT22;231;48.120;11.576;2023-12-20T18:15:21;3.70;99.90
490;DHT22;231;48.120;11.576;2023-12-20T18:17:49;3.70;99.90
490;DHT22;231;48.120;11.576;2023-12-20T18:20:16;3.70;99.90
490;DHT22;231;48.120;11.576;2023-12-20T18:22:43;3.60;99.90
490;DHT22;231;48.120;11.576;2023-12-20T18:25:10;3.70;99.90
490;DHT22;231;48.120;11.576;2023-12-20T18:27:37;3.70;99.90
490;DHT22;231;48.120;11.576;2023-12-20T18:30:05;3.70;99.90
490;DHT22;231;48.120;11.576;2023-12-20T18:32:32;3.70;99.90
490;DHT22;231;48.120;11.576;2023-12-20T18:35:01;3.70;99.90
490;DHT22;231;48.120;11.576;2023-12-20T18:37:29;3.70;99.90
490;DHT22;231;48.120;11.576;2023-12-20T18:39:55;3.70;99.90
490;DHT22;231;48.120;11.576;2023-12-20T18:42:22;3.80;99.90
490;DHT22;231;48.120;11.576;2023-12-20T18:44:52;3.70;99.90
490;DHT22;231;48.120;11.576;2023-12-20T18:47:21;3.80;99.90
490;DHT22;231;48.120;11.576;2023-12-20T18:49:48;3.80;99.90
490;DHT22;231;48.120;11.576;2023-12-20T18:52:16;3.90;99.90
490;DHT22;231;48.120;11.576;2023-12-20T18:54:43;3.90;99.90
490;DHT22;231;48.120;11.576;2023-12-20T18:57:10;3.80;99.90
490;DHT22;231;48.120;11.576;2023-12-20T18:59:37;3.80;99.90
490;DHT22;231;48.120;11.576;2023-12-20T19:02:10;3.90;99.90
490;DHT22;231;48.120;11.576;2023-12-20T19:04:44;3.80;99.90
490;DHT22;231;48.120;11.576;2023-12-20T19:13:32;3.80;99.90
490;DHT22;231;48.120;11.576;2023-12-20T19:16:08;3.80;99.90
490;DHT22;231;48.120;11.576;2023-12-20T19:22:09;3.60;99.90
490;DHT22;231;48.120;11.576;2023-12-20T19:24:55;3.50;99.90
490;DHT22;231;48.120;11.576;2023-12-20T19:34:55;3.40;99.90
490;DHT22;231;48.120;11.576;2023-12-20T19:37:45;3.30;99.90
490;DHT22;231;48.120;11.576;2023-12-20T19:40:27;3.40;99.90
490;DHT22;231;48.120;11.576;2023-12-20T19:43:08;3.40;99.90
490;DHT22;231;48.120;11.576;2023-12-20T19:45:38;3.40;99.90
490;DHT22;231;48.120;11.576;2023-12-20T19:48:07;3.50;99.90
490;DHT22;231;48.120;11.576;2023-12-20T19:58:16;3.60;99.90
490;DHT22;231;48.120;11.576;2023-12-20T20:00:43;3.70;99.90
490;DHT22;231;48.120;11.576;2023-12-20T20:03:10;3.70;99.90
490;DHT22;231;48.120;11.576;2023-12-20T20:05:37;3.70;99.90
490;DHT22;231;48.120;11.576;2023-12-20T20:08:05;3.80;99.90
490;DHT22;231;48.120;11.576;2023-12-20T20:10:34;3.90;99.90
490;DHT22;231;48.120;11.576;2023-12-20T22:28:01;3.80;99.90
